createdAt,value
2022-11-20T00:01:23.177Z,91.96
2022-11-20T00:03:54.763Z,91.65
2022-11-20T00:06:23.359Z,92.41
2022-11-20T00:08:51.163Z,92.70
2022-11-20T00:11:20.579Z,92.08
2022-11-20T00:13:49.840Z,92.63
2022-11-20T00:16:19.681Z,91.72
2022-11-20T00:18:47.683Z,92.63
2022-11-20T00:21:18.452Z,92.60
2022-11-20T00:23:47.120Z,91.55
2022-11-20T00:26:16.491Z,92.04
2022-11-20T00:28:45.605Z,92.31
2022-11-20T00:31:16.778Z,92.02
2022-11-20T00:33:45.115Z,91.87
2022-11-20T00:36:14.768Z,92.01
2022-11-20T00:38:42.348Z,92.07
2022-11-20T00:41:11.478Z,92.18
2022-11-20T00:43:39.373Z,91.92
2022-11-20T00:46:09.558Z,91.97
2022-11-20T00:48:37.100Z,91.76
2022-11-20T00:51:04.284Z,92.10
2022-11-20T00:53:32.154Z,92.04
2022-11-20T00:56:01.958Z,92.06
2022-11-20T00:58:34.722Z,92.40
2022-11-20T01:01:06.431Z,92.46
2022-11-20T01:03:40.999Z,92.13
2022-11-20T01:06:12.717Z,92.79
2022-11-20T01:08:40.289Z,92.31
2022-11-20T01:11:13.889Z,92.47
2022-11-20T01:13:42.359Z,92.73
2022-11-20T01:16:13.957Z,92.03
2022-11-20T01:18:43.960Z,92.46
2022-11-20T01:21:13.681Z,92.59
2022-11-20T01:23:42.671Z,92.84
2022-11-20T01:26:15.364Z,93.13
2022-11-20T01:28:42.693Z,92.82
2022-11-20T01:31:20.181Z,92.67
2022-11-20T01:33:50.041Z,93.48
2022-11-20T01:36:18.604Z,93.33
2022-11-20T01:38:45.827Z,93.59
2022-11-20T01:41:34.768Z,93.84
2022-11-20T01:44:02.369Z,93.51
2022-11-20T01:46:29.592Z,93.33
2022-11-20T01:49:09.817Z,93.58
2022-11-20T01:51:45.278Z,93.62
2022-11-20T01:54:25.553Z,94.33
2022-11-20T01:56:57.409Z,93.69
2022-11-20T01:59:27.272Z,94.13
2022-11-20T02:01:54.829Z,93.75
2022-11-20T02:04:23.361Z,94.35
2022-11-20T02:07:00.497Z,93.82
2022-11-20T02:09:28.975Z,93.55
2022-11-20T02:11:57.327Z,93.63
2022-11-20T02:14:25.638Z,93.56
2022-11-20T02:16:53.161Z,93.68
2022-11-20T02:19:29.558Z,94.17
2022-11-20T02:22:29.155Z,94.25
2022-11-20T02:24:56.721Z,93.95
2022-11-20T02:27:24.209Z,94.31
2022-11-20T02:30:02.203Z,94.46
2022-11-20T02:32:34.870Z,94.03
2022-11-20T02:35:31.401Z,94.33
2022-11-20T02:38:02.334Z,93.72
2022-11-20T02:40:30.371Z,94.11
2022-11-20T02:42:58.333Z,93.73
2022-11-20T02:45:26.343Z,93.99
2022-11-20T02:47:54.208Z,94.53
2022-11-20T02:50:21.920Z,94.43
2022-11-20T02:52:49.088Z,94.15
2022-11-20T02:55:16.391Z,94.60
2022-11-20T02:57:43.511Z,94.41
2022-11-20T03:00:11.364Z,94.19
2022-11-20T03:02:38.409Z,94.05
2022-11-20T03:05:05.609Z,94.85
2022-11-20T03:07:32.876Z,94.62
2022-11-20T03:10:00.104Z,94.61
2022-11-20T03:12:27.209Z,94.69
2022-11-20T03:14:54.959Z,94.32
2022-11-20T03:17:22.050Z,93.97
2022-11-20T03:19:49.128Z,94.66
2022-11-20T03:22:16.160Z,94.52
2022-11-20T03:24:43.240Z,93.85
2022-11-20T03:27:10.311Z,93.81
2022-11-20T03:29:37.507Z,93.87
2022-11-20T03:32:04.824Z,94.24
2022-11-20T03:34:31.957Z,93.97
2022-11-20T03:36:59.114Z,93.87
2022-11-20T03:39:26.287Z,93.91
2022-11-20T03:41:53.401Z,93.64
2022-11-20T03:44:23.036Z,94.09
2022-11-20T03:46:50.189Z,93.77
2022-11-20T03:49:17.354Z,93.98
2022-11-20T03:51:44.722Z,93.79
2022-11-20T03:54:12.090Z,93.48
2022-11-20T03:56:40.452Z,93.94
2022-11-20T03:59:08.224Z,93.71
2022-11-20T04:01:38.628Z,94.27
2022-11-20T04:04:06.548Z,94.45
2022-11-20T04:06:38.682Z,93.70
2022-11-20T04:09:06.885Z,94.28
2022-11-20T04:11:36.318Z,93.31
2022-11-20T04:14:07.033Z,93.45
2022-11-20T04:16:36.556Z,93.76
2022-11-20T04:19:06.191Z,93.88
2022-11-20T04:21:33.838Z,93.67
2022-11-20T04:24:01.035Z,93.51
2022-11-20T04:26:30.973Z,93.52
2022-11-20T04:28:59.019Z,93.87
2022-11-20T04:31:31.672Z,93.87
2022-11-20T04:34:06.882Z,93.72
2022-11-20T04:36:35.157Z,93.75
2022-11-20T04:39:05.574Z,93.53
2022-11-20T04:41:36.128Z,93.52
2022-11-20T04:44:05.004Z,93.67
2022-11-20T04:46:41.747Z,93.21
2022-11-20T04:49:09.806Z,93.82
2022-11-20T04:51:36.962Z,93.52
2022-11-20T04:54:04.354Z,93.10
2022-11-20T04:56:31.568Z,93.45
2022-11-20T04:59:02.213Z,93.51
2022-11-20T05:01:29.509Z,93.66
2022-11-20T05:03:56.689Z,93.48
2022-11-20T05:06:23.962Z,93.31
2022-11-20T05:08:51.401Z,93.58
2022-11-20T05:11:21.235Z,93.55
2022-11-20T05:13:49.237Z,93.61
2022-11-20T05:16:19.163Z,93.30
2022-11-20T05:18:46.533Z,92.83
2022-11-20T05:21:14.488Z,93.66
2022-11-20T05:23:42.319Z,93.67
2022-11-20T05:26:17.281Z,93.17
2022-11-20T05:28:44.389Z,93.83
2022-11-20T05:31:14.402Z,94.18
2022-11-20T05:33:43.370Z,93.31
2022-11-20T05:36:11.011Z,94.19
2022-11-20T05:38:38.479Z,93.73
2022-11-20T05:41:31.650Z,94.26
2022-11-20T05:44:00.147Z,93.83
2022-11-20T05:46:28.982Z,94.02
2022-11-20T05:48:58.284Z,94.21
2022-11-20T05:51:26.355Z,93.90
2022-11-20T05:53:53.479Z,93.83
2022-11-20T05:56:22.681Z,94.34
2022-11-20T05:58:50.812Z,93.66
2022-11-20T06:01:21.240Z,93.78
2022-11-20T06:03:48.984Z,93.74
2022-11-20T06:06:17.882Z,93.50
2022-11-20T06:08:45.999Z,94.32
2022-11-20T06:11:14.751Z,94.03
2022-11-20T06:13:43.198Z,94.62
2022-11-20T06:16:11.558Z,94.51
2022-11-20T06:18:39.262Z,94.54
2022-11-20T06:21:09.002Z,94.69
2022-11-20T06:23:37.041Z,94.39
2022-11-20T06:26:12.344Z,94.38
2022-11-20T06:28:39.572Z,93.98
2022-11-20T06:31:07.721Z,94.84
2022-11-20T06:33:34.921Z,94.41
2022-11-20T06:36:07.430Z,93.82
2022-11-20T06:38:38.075Z,93.76
2022-11-20T06:41:06.789Z,93.76
2022-11-20T06:43:34.002Z,93.87
2022-11-20T06:46:01.048Z,93.55
2022-11-20T06:48:29.588Z,93.39
2022-11-20T06:50:57.552Z,93.39
2022-11-20T06:53:25.510Z,93.68
2022-11-20T06:55:53.763Z,93.17
2022-11-20T06:58:20.878Z,93.42
2022-11-20T07:00:48.098Z,93.13
2022-11-20T07:03:15.361Z,92.76
2022-11-20T07:05:42.558Z,93.24
2022-11-20T07:08:10.844Z,92.72
2022-11-20T07:10:38.002Z,92.62
2022-11-20T07:13:05.150Z,92.98
2022-11-20T07:15:32.178Z,92.95
2022-11-20T07:18:02.794Z,92.38
2022-11-20T07:20:30.088Z,92.38
2022-11-20T07:22:58.358Z,92.91
2022-11-20T07:25:27.049Z,92.75
2022-11-20T07:27:54.291Z,92.37
2022-11-20T07:30:21.985Z,92.67
2022-11-20T07:32:54.596Z,91.90
2022-11-20T07:35:22.171Z,92.02
2022-11-20T07:37:49.801Z,91.44
2022-11-20T07:40:18.078Z,91.79
2022-11-20T07:42:56.429Z,91.42
2022-11-20T07:45:25.761Z,91.28
2022-11-20T07:47:52.884Z,91.25
2022-11-20T07:50:21.040Z,91.39
2022-11-20T07:52:48.778Z,90.95
2022-11-20T07:55:16.461Z,91.37
2022-11-20T07:57:43.802Z,91.40
2022-11-20T08:00:12.575Z,90.96
2022-11-20T08:02:41.420Z,91.21
2022-11-20T08:05:12.434Z,91.08
2022-11-20T08:07:45.372Z,90.95
2022-11-20T08:10:16.548Z,90.54
2022-11-20T08:13:10.003Z,90.44
2022-11-20T08:15:38.604Z,90.21
2022-11-20T08:21:03.243Z,89.54
2022-11-20T08:23:30.524Z,89.72
2022-11-20T08:25:57.629Z,89.72
2022-11-20T08:28:24.760Z,89.67
2022-11-20T08:30:52.012Z,89.08
2022-11-20T08:33:19.615Z,88.92
2022-11-20T08:35:47.134Z,89.01
2022-11-20T08:38:14.403Z,88.71
2022-11-20T08:40:41.569Z,88.97
2022-11-20T08:43:08.783Z,88.90
2022-11-20T08:45:36.003Z,88.55
2022-11-20T08:48:04.635Z,88.19
2022-11-20T08:50:33.631Z,88.38
2022-11-20T08:53:05.973Z,88.04
2022-11-20T08:55:33.431Z,88.02
2022-11-20T08:58:05.049Z,88.00
2022-11-20T09:00:33.618Z,88.20
2022-11-20T09:03:02.410Z,87.61
2022-11-20T09:05:29.921Z,88.05
2022-11-20T09:07:58.592Z,87.86
2022-11-20T09:10:26.341Z,87.31
2022-11-20T09:12:54.920Z,87.11
2022-11-20T09:15:22.763Z,87.18
2022-11-20T09:17:57.536Z,86.68
2022-11-20T09:20:25.165Z,87.02
2022-11-20T09:22:52.613Z,87.31
2022-11-20T09:25:20.059Z,87.09
2022-11-20T09:27:47.452Z,87.08
2022-11-20T09:30:16.482Z,86.86
2022-11-20T09:32:44.357Z,86.83
2022-11-20T09:35:11.979Z,86.47
2022-11-20T09:37:39.605Z,87.03
2022-11-20T09:40:07.885Z,86.52
2022-11-20T09:43:20.244Z,86.10
2022-11-20T09:46:10.186Z,85.86
2022-11-20T09:49:19.584Z,85.52
2022-11-20T09:52:00.279Z,85.25
2022-11-20T09:54:40.846Z,84.51
2022-11-20T09:57:20.105Z,85.06
2022-11-20T09:59:52.422Z,85.13
2022-11-20T10:02:25.682Z,85.18
2022-11-20T10:05:24.404Z,84.52
2022-11-20T10:08:03.542Z,84.39
2022-11-20T10:10:41.118Z,84.82
2022-11-20T10:13:16.662Z,84.58
2022-11-20T10:16:05.040Z,84.26
2022-11-20T10:19:07.283Z,84.30
2022-11-20T10:21:57.325Z,83.84
2022-11-20T10:24:44.698Z,83.65
2022-11-20T10:27:30.183Z,83.17
2022-11-20T10:30:15.964Z,82.58
2022-11-20T10:33:04.904Z,82.77
2022-11-20T10:36:04.501Z,82.84
2022-11-20T10:38:55.900Z,82.14
2022-11-20T10:41:33.133Z,82.42
2022-11-20T10:44:40.422Z,82.62
2022-11-20T10:47:18.297Z,82.42
2022-11-20T10:49:52.482Z,82.34
2022-11-20T10:52:38.093Z,82.63
2022-11-20T10:55:19.922Z,82.08
2022-11-20T10:58:09.091Z,81.88
2022-11-20T11:00:36.541Z,82.60
2022-11-20T11:03:04.498Z,82.56
2022-11-20T11:05:43.817Z,82.69
2022-11-20T11:08:20.454Z,82.39
2022-11-20T11:10:58.755Z,82.61
2022-11-20T11:13:28.905Z,82.72
2022-11-20T11:15:56.199Z,82.84
2022-11-20T11:18:34.153Z,82.86
2022-11-20T11:21:04.343Z,82.84
2022-11-20T11:23:39.347Z,83.05
2022-11-20T11:26:19.181Z,82.96
2022-11-20T11:29:00.759Z,83.12
2022-11-20T11:31:30.709Z,83.29
2022-11-20T11:34:09.339Z,83.35
2022-11-20T11:36:37.085Z,83.64
2022-11-20T11:39:07.013Z,83.52
2022-11-20T11:41:38.690Z,83.47
2022-11-20T11:44:59.712Z,83.59
2022-11-20T11:47:32.323Z,83.37
2022-11-20T11:50:24.423Z,83.38
2022-11-20T11:53:20.617Z,83.68
2022-11-20T11:56:15.009Z,83.33
2022-11-20T11:58:49.655Z,83.56
2022-11-20T12:01:34.055Z,83.54
2022-11-20T12:04:07.119Z,83.88
2022-11-20T12:06:39.574Z,84.02
2022-11-20T12:09:11.241Z,84.24
2022-11-20T12:11:54.969Z,84.26
2022-11-20T12:14:38.144Z,84.62
2022-11-20T12:17:05.529Z,84.21
2022-11-20T12:19:35.384Z,84.27
2022-11-20T12:22:35.777Z,84.35
2022-11-20T12:25:13.131Z,84.35
2022-11-20T12:27:57.462Z,83.99
2022-11-20T12:30:25.932Z,83.53
2022-11-20T12:33:19.250Z,83.77
2022-11-20T12:36:07.729Z,83.78
2022-11-20T12:38:37.621Z,84.16
2022-11-20T12:41:47.521Z,83.94
2022-11-20T12:45:11.681Z,84.27
2022-11-20T12:48:09.771Z,84.15
2022-11-20T12:51:17.903Z,84.03
2022-11-20T12:54:05.520Z,83.83
2022-11-20T12:56:51.324Z,83.94
2022-11-20T12:59:29.914Z,84.41
2022-11-20T13:02:18.282Z,84.36
2022-11-20T13:05:03.387Z,84.33
2022-11-20T13:07:31.839Z,84.25
2022-11-20T13:10:00.400Z,84.48
2022-11-20T13:12:49.572Z,84.20
2022-11-20T13:15:35.920Z,84.46
2022-11-20T13:18:05.443Z,84.54
2022-11-20T13:20:35.611Z,84.45
2022-11-20T13:23:02.565Z,84.49
2022-11-20T13:25:49.143Z,84.49
2022-11-20T13:28:16.262Z,84.38
2022-11-20T13:30:55.218Z,84.41
2022-11-20T13:33:25.526Z,84.43
2022-11-20T13:35:59.599Z,84.76
2022-11-20T13:38:31.259Z,84.57
2022-11-20T13:41:22.208Z,84.37
2022-11-20T13:43:49.597Z,84.52
2022-11-20T13:46:17.080Z,84.78
2022-11-20T13:48:46.999Z,84.66
2022-11-20T13:51:54.374Z,85.09
2022-11-20T13:54:44.959Z,84.72
2022-11-20T13:57:45.733Z,84.37
2022-11-20T14:00:21.288Z,84.41
2022-11-20T14:02:59.219Z,85.05
2022-11-20T14:05:26.395Z,85.10
2022-11-20T14:07:55.239Z,84.82
2022-11-20T14:10:31.082Z,84.95
2022-11-20T14:12:59.349Z,84.91
2022-11-20T14:15:31.083Z,85.17
2022-11-20T14:17:59.279Z,85.22
2022-11-20T14:20:30.178Z,85.61
2022-11-20T14:22:57.407Z,85.58
2022-11-20T14:25:32.121Z,85.50
2022-11-20T14:28:01.482Z,85.74
2022-11-20T14:30:38.699Z,85.77
2022-11-20T14:33:06.401Z,86.30
2022-11-20T14:35:41.876Z,86.25
2022-11-20T14:38:13.851Z,86.32
2022-11-20T14:40:41.160Z,86.55
2022-11-20T14:43:26.702Z,86.74
2022-11-20T14:45:59.314Z,86.67
2022-11-20T14:48:38.413Z,86.78
2022-11-20T14:51:05.589Z,87.11
2022-11-20T14:53:32.709Z,87.08
2022-11-20T14:56:01.979Z,87.12
2022-11-20T14:58:34.631Z,87.24
2022-11-20T15:01:08.984Z,86.93
2022-11-20T15:03:41.602Z,87.59
2022-11-20T15:06:13.002Z,87.31
2022-11-20T15:08:40.212Z,87.44
2022-11-20T15:11:20.981Z,87.62
2022-11-20T15:13:48.085Z,87.83
2022-11-20T15:16:20.816Z,87.61
2022-11-20T15:18:48.579Z,87.91
2022-11-20T15:21:17.970Z,87.76
2022-11-20T15:23:45.494Z,87.56
2022-11-20T15:26:19.802Z,87.76
2022-11-20T15:28:51.287Z,87.46
2022-11-20T15:31:24.120Z,87.79
2022-11-20T15:33:51.487Z,87.44
2022-11-20T15:36:18.850Z,87.54
2022-11-20T15:38:46.080Z,87.71
2022-11-20T15:41:13.503Z,87.75
2022-11-20T15:43:40.631Z,87.90
2022-11-20T15:46:14.499Z,88.32
2022-11-20T15:48:48.209Z,88.05
2022-11-20T15:51:28.224Z,87.79
2022-11-20T15:53:56.929Z,87.62
2022-11-20T15:56:24.129Z,87.69
2022-11-20T15:58:51.822Z,87.41
2022-11-20T16:01:21.922Z,87.84
2022-11-20T16:03:49.649Z,88.21
2022-11-20T16:06:20.044Z,87.66
2022-11-20T16:08:47.310Z,88.06
2022-11-20T16:11:16.135Z,88.01
2022-11-20T16:14:03.214Z,88.25
2022-11-20T16:16:39.649Z,88.04
2022-11-20T16:19:07.047Z,88.14
2022-11-20T16:21:35.533Z,87.39
2022-11-20T16:24:05.701Z,87.94
2022-11-20T16:26:34.503Z,88.20
2022-11-20T16:29:03.822Z,88.32
2022-11-20T16:31:31.371Z,88.12
2022-11-20T16:34:01.441Z,88.16
2022-11-20T16:36:31.129Z,88.06
2022-11-20T16:39:01.367Z,87.79
2022-11-20T16:41:31.474Z,87.87
2022-11-20T16:43:59.803Z,88.05
2022-11-20T16:46:29.914Z,87.76
2022-11-20T16:49:11.538Z,87.38
2022-11-20T16:51:38.841Z,87.84
2022-11-20T16:54:07.334Z,87.78
2022-11-20T16:56:34.442Z,87.70
2022-11-20T16:59:02.880Z,87.43
2022-11-20T17:01:31.582Z,87.46
2022-11-20T17:04:04.813Z,87.75
2022-11-20T17:06:37.733Z,87.41
2022-11-20T17:09:05.520Z,87.32
2022-11-20T17:11:33.763Z,87.51
2022-11-20T17:14:01.381Z,87.16
2022-11-20T17:16:28.559Z,87.34
2022-11-20T17:19:02.498Z,87.32
2022-11-20T17:21:31.579Z,87.01
2022-11-20T17:24:06.205Z,87.55
2022-11-20T17:26:35.579Z,87.30
2022-11-20T17:29:06.291Z,86.94
2022-11-20T17:31:35.190Z,86.82
2022-11-20T17:34:02.839Z,87.09
2022-11-20T17:36:31.039Z,87.32
2022-11-20T17:38:59.242Z,86.83
2022-11-20T17:41:29.484Z,86.98
2022-11-20T17:44:01.098Z,87.11
2022-11-20T17:46:32.964Z,87.15
2022-11-20T17:49:01.040Z,87.17
2022-11-20T17:51:30.963Z,87.06
2022-11-20T17:54:03.896Z,87.39
2022-11-20T17:56:53.401Z,87.56
2022-11-20T17:59:21.240Z,87.51
2022-11-20T18:01:48.588Z,87.85
2022-11-20T18:04:16.918Z,87.71
2022-11-20T18:06:44.586Z,87.64
2022-11-20T18:09:12.460Z,87.64
2022-11-20T18:11:41.528Z,87.21
2022-11-20T18:14:49.265Z,87.53
2022-11-20T18:17:16.805Z,87.34
2022-11-20T18:20:01.176Z,87.27
2022-11-20T18:22:33.450Z,86.87
2022-11-20T18:25:00.769Z,87.21
2022-11-20T18:27:27.883Z,87.29
2022-11-20T18:29:55.052Z,87.33
2022-11-20T18:32:23.006Z,86.91
2022-11-20T18:34:51.589Z,86.90
2022-11-20T18:37:19.107Z,87.04
2022-11-20T18:39:46.662Z,86.92
2022-11-20T18:42:34.966Z,86.81
2022-11-20T18:45:04.631Z,86.74
2022-11-20T18:47:36.425Z,86.68
2022-11-20T18:50:05.303Z,86.68
2022-11-20T18:52:48.043Z,86.04
2022-11-20T18:55:15.316Z,86.63
2022-11-20T18:57:42.613Z,86.86
2022-11-20T19:00:10.620Z,86.58
2022-11-20T19:02:42.064Z,86.18
2022-11-20T19:05:11.933Z,85.84
2022-11-20T19:07:39.278Z,85.71
2022-11-20T19:10:07.337Z,85.30
2022-11-20T19:12:34.454Z,85.33
2022-11-20T19:15:01.609Z,85.06
2022-11-20T19:17:28.832Z,84.74
2022-11-20T19:19:56.103Z,84.47
2022-11-20T19:22:23.980Z,84.31
2022-11-20T19:24:51.089Z,84.42
2022-11-20T19:27:18.282Z,84.55
2022-11-20T19:29:45.450Z,83.75
2022-11-20T19:32:12.645Z,83.64
2022-11-20T19:34:39.968Z,83.61
2022-11-20T19:37:07.256Z,84.00
2022-11-20T19:39:36.394Z,83.93
2022-11-20T19:42:03.907Z,84.25
2022-11-20T19:44:32.471Z,84.09
2022-11-20T19:46:59.819Z,83.87
2022-11-20T19:49:27.061Z,83.76
2022-11-20T19:51:54.295Z,83.95
2022-11-20T19:54:21.480Z,83.89
2022-11-20T19:56:49.813Z,83.39
2022-11-20T19:59:17.014Z,83.33
2022-11-20T20:01:44.524Z,83.58
2022-11-20T20:04:11.750Z,83.68
2022-11-20T20:06:40.204Z,83.53
2022-11-20T20:09:10.403Z,83.77
2022-11-20T20:11:37.962Z,83.27
2022-11-20T20:14:07.883Z,83.52
2022-11-20T20:16:35.928Z,83.60
2022-11-20T20:19:05.728Z,84.12
2022-11-20T20:21:35.272Z,84.39
2022-11-20T20:24:02.813Z,84.43
2022-11-20T20:26:31.597Z,84.40
2022-11-20T20:28:59.438Z,84.57
2022-11-20T20:31:29.289Z,84.25
2022-11-20T20:33:57.440Z,84.61
2022-11-20T20:36:25.653Z,84.52
2022-11-20T20:38:54.146Z,84.76
2022-11-20T20:41:23.452Z,84.76
2022-11-20T20:44:09.882Z,85.14
2022-11-20T20:46:36.960Z,85.28
2022-11-20T20:49:04.357Z,84.83
2022-11-20T20:51:31.450Z,84.98
2022-11-20T20:53:58.769Z,84.97
2022-11-20T20:56:26.262Z,85.08
2022-11-20T20:58:53.430Z,85.23
2022-11-20T21:01:21.579Z,85.01
2022-11-20T21:03:48.949Z,85.34
2022-11-20T21:06:16.105Z,85.81
2022-11-20T21:08:44.574Z,85.81
2022-11-20T21:11:14.769Z,85.93
2022-11-20T21:13:43.560Z,85.76
2022-11-20T21:16:12.290Z,85.89
2022-11-20T21:18:39.494Z,86.75
2022-11-20T21:21:26.532Z,86.23
2022-11-20T21:23:53.918Z,85.97
2022-11-20T21:26:21.698Z,86.60
2022-11-20T21:28:50.128Z,86.35
2022-11-20T21:31:22.249Z,86.37
2022-11-20T21:33:51.864Z,86.31
2022-11-20T21:36:21.721Z,86.55
2022-11-20T21:38:49.334Z,86.36
2022-11-20T21:41:16.581Z,86.30
2022-11-20T21:43:44.415Z,86.45
2022-11-20T21:46:16.883Z,86.77
2022-11-20T21:48:45.968Z,86.63
2022-11-20T21:51:18.685Z,86.54
2022-11-20T21:53:47.519Z,87.00
2022-11-20T21:56:20.290Z,86.43
2022-11-20T21:58:48.971Z,86.69
2022-11-20T22:01:17.659Z,86.67
2022-11-20T22:03:57.363Z,86.51
2022-11-20T22:06:27.274Z,87.08
2022-11-20T22:08:54.490Z,86.82
2022-11-20T22:11:22.461Z,86.48
2022-11-20T22:14:08.540Z,86.25
2022-11-20T22:16:37.351Z,86.37
2022-11-20T22:19:05.170Z,86.65
2022-11-20T22:21:33.251Z,86.39
2022-11-20T22:24:00.676Z,85.48
2022-11-20T22:26:30.287Z,85.64
2022-11-20T22:28:58.952Z,86.59
2022-11-20T22:31:28.392Z,86.29
2022-11-20T22:33:56.123Z,86.18
2022-11-20T22:36:25.742Z,85.85
2022-11-20T22:38:53.042Z,86.44
2022-11-20T22:41:22.121Z,85.63
2022-11-20T22:43:55.025Z,85.99
2022-11-20T22:46:22.619Z,85.72
2022-11-20T22:48:52.304Z,86.13
2022-11-20T22:51:40.648Z,85.45
2022-11-20T22:54:10.718Z,86.28
2022-11-20T22:56:37.902Z,86.34
2022-11-20T22:59:05.395Z,85.70
2022-11-20T23:01:34.696Z,85.92
2022-11-20T23:04:04.334Z,85.81
2022-11-20T23:06:37.022Z,86.38
2022-11-20T23:09:06.246Z,86.04
2022-11-20T23:11:35.346Z,86.21
2022-11-20T23:14:13.044Z,85.67
2022-11-20T23:16:40.400Z,85.90
2022-11-20T23:19:10.802Z,86.08
2022-11-20T23:21:39.961Z,85.55
2022-11-20T23:24:08.113Z,85.63
2022-11-20T23:26:37.793Z,85.58
2022-11-20T23:29:06.048Z,86.14
2022-11-20T23:31:35.082Z,86.19
2022-11-20T23:34:02.483Z,85.78
2022-11-20T23:36:29.772Z,86.27
2022-11-20T23:38:57.117Z,85.58
2022-11-20T23:41:24.366Z,86.25
2022-11-20T23:43:52.290Z,85.86
2022-11-20T23:46:19.480Z,86.05
2022-11-20T23:48:46.629Z,86.00
2022-11-20T23:51:14.664Z,85.91
2022-11-20T23:53:42.001Z,85.99
2022-11-20T23:56:10.753Z,85.97
2022-11-20T23:58:38.937Z,86.16
